createdAt,value
2023-05-24T00:00:28.206Z,9.51
2023-05-24T00:01:28.235Z,9.54
2023-05-24T00:02:28.400Z,9.55
2023-05-24T00:03:28.354Z,9.56
2023-05-24T00:04:28.192Z,9.56
2023-05-24T00:05:28.146Z,9.55
2023-05-24T00:06:31.123Z,9.55
2023-05-24T00:07:31.120Z,9.58
2023-05-24T00:08:28.129Z,9.58
2023-05-24T00:09:28.075Z,9.61
2023-05-24T00:10:28.108Z,9.61
2023-05-24T00:11:28.063Z,9.61
2023-05-24T00:12:28.048Z,9.65
2023-05-24T00:13:28.062Z,9.66
2023-05-24T00:14:28.022Z,9.72
2023-05-24T00:15:28.030Z,9.72
2023-05-24T00:16:28.033Z,9.73
2023-05-24T00:17:28.013Z,9.74
2023-05-24T00:18:27.995Z,9.74
2023-05-24T00:19:28.679Z,9.74
2023-05-24T00:20:27.975Z,9.74
2023-05-24T00:21:27.922Z,9.74
2023-05-24T00:22:27.907Z,9.74
2023-05-24T00:23:27.943Z,9.74
2023-05-24T00:24:27.883Z,9.76
2023-05-24T00:25:27.865Z,9.77
2023-05-24T00:26:30.883Z,9.77
2023-05-24T00:27:30.848Z,9.77
2023-05-24T00:28:27.838Z,9.79
2023-05-24T00:29:30.788Z,9.79
2023-05-24T00:30:27.793Z,9.79
2023-05-24T00:31:27.793Z,9.79
2023-05-24T00:32:27.786Z,9.79
2023-05-24T00:33:27.793Z,9.79
2023-05-24T00:34:27.749Z,9.79
2023-05-24T00:35:27.729Z,9.79
2023-05-24T00:36:27.746Z,9.80
2023-05-24T00:37:27.702Z,9.80
2023-05-24T00:38:27.707Z,9.79
2023-05-24T00:39:27.671Z,9.77
2023-05-24T00:40:27.657Z,9.80
2023-05-24T00:41:27.695Z,9.82
2023-05-24T00:42:27.647Z,9.83
2023-05-24T00:43:27.620Z,9.87
2023-05-24T00:44:27.601Z,9.91
2023-05-24T00:45:27.588Z,9.94
2023-05-24T00:46:30.807Z,9.95
2023-05-24T00:47:30.597Z,9.97
2023-05-24T00:48:27.567Z,9.97
2023-05-24T00:49:27.547Z,9.97
2023-05-24T00:50:27.527Z,9.98
2023-05-24T00:51:27.509Z,9.98
2023-05-24T00:52:27.530Z,9.98
2023-05-24T00:53:27.510Z,10.01
2023-05-24T00:54:27.463Z,9.99
2023-05-24T00:55:27.479Z,10.01
2023-05-24T00:56:27.439Z,9.99
2023-05-24T00:57:27.428Z,10.01
2023-05-24T00:58:27.441Z,9.99
2023-05-24T00:59:27.407Z,10.01
2023-05-24T01:00:27.392Z,9.99
2023-05-24T01:01:27.398Z,10.01
2023-05-24T01:02:27.411Z,10.02
2023-05-24T01:03:27.461Z,10.02
2023-05-24T01:04:27.334Z,10.01
2023-05-24T01:05:27.329Z,10.02
2023-05-24T01:06:30.306Z,10.05
2023-05-24T01:07:30.293Z,10.09
2023-05-24T01:08:27.278Z,10.12
2023-05-24T01:09:27.288Z,10.12
2023-05-24T01:10:27.262Z,10.12
2023-05-24T01:11:27.250Z,10.12
2023-05-24T01:12:27.229Z,10.12
2023-05-24T01:13:27.214Z,10.09
2023-05-24T01:14:27.229Z,10.12
2023-05-24T01:15:27.181Z,10.12
2023-05-24T01:16:27.187Z,10.10
2023-05-24T01:17:27.165Z,10.10
2023-05-24T01:18:27.141Z,10.05
2023-05-24T01:19:27.132Z,10.05
2023-05-24T01:20:27.169Z,10.02
2023-05-24T01:21:27.103Z,9.99
2023-05-24T01:22:27.081Z,9.99
2023-05-24T01:23:27.075Z,9.97
2023-05-24T01:24:27.077Z,9.97
2023-05-24T01:25:27.084Z,9.97
2023-05-24T01:26:30.033Z,9.97
2023-05-24T01:27:30.024Z,9.97
2023-05-24T01:28:27.033Z,9.98
2023-05-24T01:29:26.999Z,9.98
2023-05-24T01:30:26.982Z,10.01
2023-05-24T01:31:27.065Z,9.99
2023-05-24T01:32:27.014Z,10.02
2023-05-24T01:33:26.939Z,10.02
2023-05-24T01:34:26.936Z,10.07
2023-05-24T01:35:26.914Z,10.09
2023-05-24T01:36:26.894Z,10.09
2023-05-24T01:37:26.938Z,10.10
2023-05-24T01:38:26.866Z,10.10
2023-05-24T01:39:26.923Z,10.09
2023-05-24T01:40:26.864Z,10.09
2023-05-24T01:41:26.845Z,10.07
2023-05-24T01:42:26.815Z,10.07
2023-05-24T01:43:26.821Z,10.02
2023-05-24T01:44:26.792Z,10.02
2023-05-24T01:45:26.772Z,9.99
2023-05-24T01:46:29.781Z,9.98
2023-05-24T01:47:29.789Z,9.98
2023-05-24T01:48:26.724Z,9.94
2023-05-24T01:49:28.729Z,9.91
2023-05-24T01:50:26.706Z,9.89
2023-05-24T01:51:26.687Z,9.86
2023-05-24T01:52:26.694Z,9.86
2023-05-24T01:53:26.663Z,9.87
2023-05-24T01:54:26.651Z,9.87
2023-05-24T01:55:26.660Z,9.87
2023-05-24T01:56:26.616Z,9.84
2023-05-24T01:57:26.607Z,9.83
2023-05-24T01:58:26.590Z,9.82
2023-05-24T01:59:26.597Z,9.80
2023-05-24T02:00:26.598Z,9.77
2023-05-24T02:01:26.610Z,9.74
2023-05-24T02:02:26.590Z,9.72
2023-05-24T02:03:26.563Z,9.72
2023-05-24T02:04:26.519Z,9.69
2023-05-24T02:05:26.527Z,9.69
2023-05-24T02:06:29.535Z,9.69
2023-05-24T02:07:29.537Z,9.69
2023-05-24T02:08:26.480Z,9.73
2023-05-24T02:09:26.457Z,9.69
2023-05-24T02:10:26.433Z,9.72
2023-05-24T02:11:26.426Z,9.73
2023-05-24T02:12:26.421Z,9.72
2023-05-24T02:13:26.391Z,9.73
2023-05-24T02:14:26.395Z,9.73
2023-05-24T02:15:26.389Z,9.73
2023-05-24T02:16:26.372Z,9.72
2023-05-24T02:17:26.404Z,9.73
2023-05-24T02:18:26.319Z,9.72
2023-05-24T02:19:26.312Z,9.73
2023-05-24T02:20:26.326Z,9.73
2023-05-24T02:21:26.329Z,9.74
2023-05-24T02:22:26.273Z,9.74
2023-05-24T02:23:26.265Z,9.73
2023-05-24T02:24:26.240Z,9.74
2023-05-24T02:25:26.236Z,9.73
2023-05-24T02:26:29.257Z,9.74
2023-05-24T02:27:29.207Z,9.76
2023-05-24T02:28:26.221Z,9.76
2023-05-24T02:29:26.201Z,9.79
2023-05-24T02:30:26.157Z,9.77
2023-05-24T02:31:26.200Z,9.79
2023-05-24T02:32:26.129Z,9.76
2023-05-24T02:33:26.119Z,9.77
2023-05-24T02:34:26.142Z,9.76
2023-05-24T02:35:26.099Z,9.76
2023-05-24T02:36:26.096Z,9.74
2023-05-24T02:37:26.071Z,9.74
2023-05-24T02:38:26.047Z,9.73
2023-05-24T02:39:26.066Z,9.72
2023-05-24T02:40:26.031Z,9.69
2023-05-24T02:41:26.013Z,9.69
2023-05-24T02:42:25.988Z,9.68
2023-05-24T02:43:26.008Z,9.66
2023-05-24T02:44:25.994Z,9.64
2023-05-24T02:45:25.953Z,9.62
2023-05-24T02:46:28.988Z,9.59
2023-05-24T02:47:28.943Z,9.58
2023-05-24T02:48:25.904Z,9.56
2023-05-24T02:49:25.926Z,9.55
2023-05-24T02:50:25.880Z,9.54
2023-05-24T02:51:25.874Z,9.51
2023-05-24T02:52:25.856Z,9.50
2023-05-24T02:53:25.841Z,9.50
2023-05-24T02:54:25.871Z,9.48
2023-05-24T02:55:25.883Z,9.48
2023-05-24T02:56:25.799Z,9.47
2023-05-24T02:57:25.790Z,9.47
2023-05-24T02:58:25.772Z,9.48
2023-05-24T02:59:25.803Z,9.47
2023-05-24T03:00:25.737Z,9.46
2023-05-24T03:01:25.797Z,9.48
2023-05-24T03:02:25.728Z,9.47
2023-05-24T03:03:25.793Z,9.47
2023-05-24T03:04:25.685Z,9.48
2023-05-24T03:05:25.682Z,9.50
2023-05-24T03:06:28.711Z,9.50
2023-05-24T03:07:28.669Z,9.51
2023-05-24T03:08:25.636Z,9.54
2023-05-24T03:09:25.631Z,9.55
2023-05-24T03:10:25.613Z,9.56
2023-05-24T03:11:25.591Z,9.59
2023-05-24T03:12:25.623Z,9.62
2023-05-24T03:13:25.585Z,9.62
2023-05-24T03:14:25.548Z,9.64
2023-05-24T03:15:25.547Z,9.64
2023-05-24T03:16:25.554Z,9.65
2023-05-24T03:17:25.520Z,9.65
2023-05-24T03:18:25.626Z,9.66
2023-05-24T03:19:25.484Z,9.69
2023-05-24T03:20:25.512Z,9.72
2023-05-24T03:21:25.529Z,9.74
2023-05-24T03:22:25.452Z,9.73
2023-05-24T03:23:25.470Z,9.74
2023-05-24T03:24:25.417Z,9.76
2023-05-24T03:25:25.407Z,9.77
2023-05-24T03:26:28.385Z,9.79
2023-05-24T03:27:28.423Z,9.82
2023-05-24T03:28:25.367Z,9.80
2023-05-24T03:29:25.362Z,9.83
2023-05-24T03:30:25.328Z,9.83
2023-05-24T03:31:25.364Z,9.84
2023-05-24T03:32:25.307Z,9.87
2023-05-24T03:33:25.321Z,9.89
2023-05-24T03:34:25.278Z,9.89
2023-05-24T03:35:25.269Z,9.91
2023-05-24T03:36:25.250Z,9.91
2023-05-24T03:37:25.249Z,9.97
2023-05-24T03:38:25.249Z,9.99
2023-05-24T03:39:25.213Z,10.02
2023-05-24T03:40:25.195Z,10.05
2023-05-24T03:41:25.187Z,10.05
2023-05-24T03:42:25.162Z,10.09
2023-05-24T03:43:25.178Z,10.12
2023-05-24T03:44:25.141Z,10.13
2023-05-24T03:45:37.714Z,10.16
2023-05-24T03:46:29.170Z,10.15
2023-05-24T03:47:28.168Z,10.17
2023-05-24T03:48:25.109Z,10.19
2023-05-24T03:49:25.070Z,10.19
2023-05-24T03:50:25.064Z,10.20
2023-05-24T03:51:25.046Z,10.20
2023-05-24T03:52:25.034Z,10.22
2023-05-24T03:53:25.074Z,10.25
2023-05-24T03:54:25.000Z,10.25
2023-05-24T03:55:25.005Z,10.23
2023-05-24T03:56:24.974Z,10.25
2023-05-24T03:57:24.964Z,10.23
2023-05-24T03:58:24.967Z,10.23
2023-05-24T03:59:24.970Z,10.23
2023-05-24T04:00:24.958Z,10.25
2023-05-24T04:01:33.284Z,10.23
2023-05-24T04:02:25.987Z,10.26
2023-05-24T04:03:25.042Z,10.26
2023-05-24T04:04:24.957Z,10.26
2023-05-24T04:05:24.875Z,10.28
2023-05-24T04:06:27.847Z,10.30
2023-05-24T04:07:27.822Z,10.31
2023-05-24T04:08:24.842Z,10.33
2023-05-24T04:09:24.802Z,10.34
2023-05-24T04:10:24.816Z,10.37
2023-05-24T04:11:24.798Z,10.37
2023-05-24T04:12:24.746Z,10.37
2023-05-24T04:13:24.735Z,10.37
2023-05-24T04:14:24.723Z,10.38
2023-05-24T04:15:24.714Z,10.38
2023-05-24T04:16:24.761Z,10.40
2023-05-24T04:17:24.978Z,10.40
2023-05-24T04:18:24.776Z,10.40
2023-05-24T04:19:24.671Z,10.44
2023-05-24T04:20:24.710Z,10.42
2023-05-24T04:21:24.668Z,10.46
2023-05-24T04:22:25.796Z,10.46
2023-05-24T04:23:24.627Z,10.48
2023-05-24T04:24:24.584Z,10.46
2023-05-24T04:25:24.575Z,10.46
2023-05-24T04:26:27.552Z,10.48
2023-05-24T04:27:27.598Z,10.49
2023-05-24T04:28:24.540Z,10.49
2023-05-24T04:29:24.517Z,10.49
2023-05-24T04:30:24.536Z,10.49
2023-05-24T04:31:24.577Z,10.49
2023-05-24T04:32:24.531Z,10.48
2023-05-24T04:33:24.502Z,10.48
2023-05-24T04:34:24.489Z,10.51
2023-05-24T04:35:24.434Z,10.51
2023-05-24T04:36:24.419Z,10.51
2023-05-24T04:37:24.413Z,10.53
2023-05-24T04:38:24.400Z,10.54
2023-05-24T04:39:24.426Z,10.54
2023-05-24T04:40:24.365Z,10.53
2023-05-24T04:41:24.419Z,10.54
2023-05-24T04:42:24.344Z,10.56
2023-05-24T04:43:24.379Z,10.56
2023-05-24T04:44:24.312Z,10.59
2023-05-24T04:45:24.296Z,10.60
2023-05-24T04:46:27.398Z,10.60
2023-05-24T04:47:27.315Z,10.59
2023-05-24T04:48:24.287Z,10.59
2023-05-24T04:49:24.304Z,10.63
2023-05-24T04:50:24.251Z,10.63
2023-05-24T04:51:24.216Z,10.61
2023-05-24T04:52:24.197Z,10.64
2023-05-24T04:53:24.195Z,10.67
2023-05-24T04:54:24.176Z,10.68
2023-05-24T04:55:24.219Z,10.68
2023-05-24T04:56:24.171Z,10.69
2023-05-24T04:57:24.133Z,10.69
2023-05-24T04:58:24.122Z,10.71
2023-05-24T04:59:24.123Z,10.71
2023-05-24T05:00:24.095Z,10.72
2023-05-24T05:01:24.183Z,10.74
2023-05-24T05:02:24.218Z,10.76
2023-05-24T05:03:24.152Z,10.76
2023-05-24T05:04:24.033Z,10.75
2023-05-24T05:05:24.018Z,10.74
2023-05-24T05:06:27.087Z,10.68
2023-05-24T05:07:26.992Z,10.69
2023-05-24T05:08:23.985Z,10.68
2023-05-24T05:09:23.970Z,10.67
2023-05-24T05:10:24.068Z,10.64
2023-05-24T05:11:23.941Z,10.64
2023-05-24T05:12:23.967Z,10.60
2023-05-24T05:13:23.928Z,10.61
2023-05-24T05:14:23.897Z,10.61
2023-05-24T05:15:23.944Z,10.61
2023-05-24T05:16:23.913Z,10.61
2023-05-24T05:17:23.886Z,10.63
2023-05-24T05:18:23.833Z,10.63
2023-05-24T05:19:23.832Z,10.63
2023-05-24T05:20:23.910Z,10.68
2023-05-24T05:21:23.861Z,10.69
2023-05-24T05:22:23.785Z,10.71
2023-05-24T05:23:23.772Z,10.72
2023-05-24T05:24:23.788Z,10.72
2023-05-24T05:25:23.749Z,10.74
2023-05-24T05:26:26.750Z,10.75
2023-05-24T05:27:26.717Z,10.76
2023-05-24T05:28:23.740Z,10.81
2023-05-24T05:29:24.427Z,10.84
2023-05-24T05:30:23.675Z,10.87
2023-05-24T05:31:23.658Z,10.90
2023-05-24T05:32:23.716Z,10.96
2023-05-24T05:33:23.648Z,11.02
2023-05-24T05:34:23.656Z,11.05
2023-05-24T05:35:23.610Z,11.05
2023-05-24T05:36:23.600Z,11.04
2023-05-24T05:37:23.578Z,11.05
2023-05-24T05:38:23.569Z,11.07
2023-05-24T05:39:23.572Z,11.10
2023-05-24T05:40:23.541Z,11.10
2023-05-24T05:41:23.530Z,11.10
2023-05-24T05:42:23.521Z,11.08
2023-05-24T05:43:23.495Z,11.08
2023-05-24T05:44:23.500Z,11.08
2023-05-24T05:45:23.466Z,11.11
2023-05-24T05:46:26.573Z,11.10
2023-05-24T05:47:26.473Z,11.02
2023-05-24T05:48:23.429Z,11.02
2023-05-24T05:49:23.450Z,11.05
2023-05-24T05:50:23.490Z,11.00
2023-05-24T05:51:23.384Z,10.97
2023-05-24T05:52:23.383Z,10.96
2023-05-24T05:53:23.362Z,10.97
2023-05-24T05:54:23.404Z,11.00
2023-05-24T05:55:23.324Z,11.04
2023-05-24T05:56:23.318Z,11.04
2023-05-24T05:57:23.302Z,11.00
2023-05-24T05:58:23.299Z,10.97
2023-05-24T05:59:23.273Z,10.96
2023-05-24T06:00:23.290Z,10.96
2023-05-24T06:01:23.243Z,10.96
2023-05-24T06:02:23.290Z,10.97
2023-05-24T06:03:23.379Z,11.02
2023-05-24T06:04:23.251Z,10.99
2023-05-24T06:05:23.215Z,11.00
2023-05-24T06:06:26.183Z,11.00
2023-05-24T06:07:26.163Z,10.97
2023-05-24T06:08:23.150Z,10.94
2023-05-24T06:09:23.138Z,10.94
2023-05-24T06:10:23.177Z,10.96
2023-05-24T06:11:23.113Z,10.99
2023-05-24T06:12:23.100Z,10.97
2023-05-24T06:13:23.080Z,10.97
2023-05-24T06:14:23.075Z,10.97
2023-05-24T06:15:23.070Z,10.96
2023-05-24T06:16:23.148Z,10.94
2023-05-24T06:17:23.064Z,10.96
2023-05-24T06:18:23.011Z,10.94
2023-05-24T06:19:23.007Z,10.94
2023-05-24T06:20:23.038Z,10.97
2023-05-24T06:21:22.960Z,11.04
2023-05-24T06:22:23.003Z,11.04
2023-05-24T06:23:22.941Z,11.07
2023-05-24T06:24:22.971Z,11.07
2023-05-24T06:25:22.909Z,11.10
2023-05-24T06:26:25.925Z,11.11
2023-05-24T06:27:25.918Z,11.14
2023-05-24T06:28:22.873Z,11.14
2023-05-24T06:29:22.981Z,11.12
2023-05-24T06:30:22.940Z,11.15
2023-05-24T06:31:22.954Z,11.18
2023-05-24T06:32:22.898Z,11.19
2023-05-24T06:33:22.799Z,11.23
2023-05-24T06:34:22.794Z,11.15
2023-05-24T06:35:22.779Z,11.18
2023-05-24T06:36:22.764Z,11.22
2023-05-24T06:37:22.741Z,11.22
2023-05-24T06:38:22.776Z,11.22
2023-05-24T06:39:22.723Z,11.25
2023-05-24T06:40:22.709Z,11.23
2023-05-24T06:41:22.682Z,11.19
2023-05-24T06:42:22.697Z,11.23
2023-05-24T06:43:22.679Z,11.27
2023-05-24T06:44:25.145Z,11.32
2023-05-24T06:45:22.630Z,11.30
2023-05-24T06:46:25.661Z,11.33
2023-05-24T06:47:25.767Z,11.37
2023-05-24T06:48:22.766Z,11.37
2023-05-24T06:49:22.580Z,11.43
2023-05-24T06:50:22.596Z,11.37
2023-05-24T06:51:22.599Z,11.37
2023-05-24T06:52:22.539Z,11.37
2023-05-24T06:53:22.573Z,11.40
2023-05-24T06:54:22.548Z,11.40
2023-05-24T06:55:22.491Z,11.36
2023-05-24T06:56:22.486Z,11.37
2023-05-24T06:57:22.503Z,11.40
2023-05-24T06:58:22.456Z,11.43
2023-05-24T06:59:22.465Z,11.47
2023-05-24T07:00:22.477Z,11.47
2023-05-24T07:01:22.479Z,11.47
2023-05-24T07:02:22.452Z,11.48
2023-05-24T07:03:22.397Z,11.55
2023-05-24T07:04:22.432Z,11.57
2023-05-24T07:05:22.387Z,11.62
2023-05-24T07:06:25.348Z,11.68
2023-05-24T07:07:25.335Z,11.73
2023-05-24T07:08:22.314Z,11.77
2023-05-24T07:09:22.344Z,11.77
2023-05-24T07:10:22.329Z,11.73
2023-05-24T07:11:22.315Z,11.68
2023-05-24T07:12:22.266Z,11.70
2023-05-24T07:13:22.239Z,11.72
2023-05-24T07:14:22.247Z,11.75
2023-05-24T07:15:22.271Z,11.77
2023-05-24T07:16:22.216Z,11.80
2023-05-24T07:17:22.220Z,11.88
2023-05-24T07:18:22.219Z,11.90
2023-05-24T07:19:22.149Z,11.86
2023-05-24T07:20:22.220Z,11.81
2023-05-24T07:21:22.154Z,11.84
2023-05-24T07:22:22.121Z,11.84
2023-05-24T07:23:22.105Z,11.86
2023-05-24T07:24:22.182Z,11.81
2023-05-24T07:25:22.121Z,11.87
2023-05-24T07:26:25.064Z,11.87
2023-05-24T07:27:25.055Z,11.90
2023-05-24T07:28:22.054Z,11.87
2023-05-24T07:29:22.049Z,11.87
2023-05-24T07:30:31.821Z,11.90
2023-05-24T07:31:23.012Z,11.97
2023-05-24T07:32:22.024Z,11.97
2023-05-24T07:33:22.046Z,12.03
2023-05-24T07:34:21.987Z,12.07
2023-05-24T07:35:21.963Z,12.12
2023-05-24T07:36:21.954Z,12.13
2023-05-24T07:37:21.947Z,12.21
2023-05-24T07:38:21.904Z,12.21
2023-05-24T07:39:21.893Z,12.21
2023-05-24T07:40:21.875Z,12.22
2023-05-24T07:41:21.859Z,12.25
2023-05-24T07:42:21.898Z,12.27
2023-05-24T07:43:21.840Z,12.28
2023-05-24T07:44:21.828Z,12.22
2023-05-24T07:45:21.805Z,12.24
2023-05-24T07:46:24.826Z,12.25
2023-05-24T07:47:24.859Z,12.31
2023-05-24T07:48:21.793Z,12.29
2023-05-24T07:49:21.759Z,12.32
2023-05-24T07:50:21.750Z,12.29
2023-05-24T07:51:21.729Z,12.27
2023-05-24T07:52:21.788Z,12.20
2023-05-24T07:53:21.704Z,12.13
2023-05-24T07:54:21.692Z,12.09
2023-05-24T07:55:21.720Z,12.04
2023-05-24T07:56:21.664Z,12.07
2023-05-24T07:57:21.650Z,12.10
2023-05-24T07:58:21.676Z,12.13
2023-05-24T07:59:21.633Z,12.18
2023-05-24T08:00:21.632Z,12.17
2023-05-24T08:01:21.603Z,12.10
2023-05-24T08:02:21.701Z,12.09
2023-05-24T08:03:21.778Z,12.07
2023-05-24T08:04:21.568Z,12.03
2023-05-24T08:05:21.556Z,12.03
2023-05-24T08:06:24.651Z,12.00
2023-05-24T08:07:24.641Z,12.02
2023-05-24T08:08:21.566Z,12.00
2023-05-24T08:09:21.495Z,12.04
2023-05-24T08:10:21.526Z,12.03
2023-05-24T08:11:21.469Z,12.03
2023-05-24T08:12:21.471Z,12.04
2023-05-24T08:13:21.450Z,12.02
2023-05-24T08:14:21.469Z,11.94
2023-05-24T08:15:21.415Z,11.94
2023-05-24T08:16:21.492Z,11.91
2023-05-24T08:17:21.389Z,11.94
2023-05-24T08:18:21.425Z,11.97
2023-05-24T08:19:21.361Z,11.90
2023-05-24T08:20:21.531Z,11.91
2023-05-24T08:21:21.326Z,11.94
2023-05-24T08:22:21.319Z,12.00
2023-05-24T08:23:21.303Z,12.03
2023-05-24T08:24:21.314Z,12.04
2023-05-24T08:25:21.295Z,12.12
2023-05-24T08:26:24.266Z,12.18
2023-05-24T08:27:24.249Z,12.21
2023-05-24T08:28:21.306Z,12.27
2023-05-24T08:29:21.222Z,12.29
2023-05-24T08:30:21.292Z,12.31
2023-05-24T08:31:21.212Z,12.39
2023-05-24T08:32:21.251Z,12.39
2023-05-24T08:33:21.168Z,12.42
2023-05-24T08:34:21.192Z,12.54
2023-05-24T08:35:22.078Z,12.61
2023-05-24T08:36:21.129Z,12.79
2023-05-24T08:37:21.121Z,12.91
2023-05-24T08:38:21.280Z,13.01
2023-05-24T08:39:21.091Z,13.05
2023-05-24T08:40:21.172Z,13.18
2023-05-24T08:41:21.082Z,13.20
2023-05-24T08:42:21.087Z,13.09
2023-05-24T08:43:21.066Z,13.15
2023-05-24T08:44:21.022Z,13.18
2023-05-24T08:45:21.014Z,13.18
2023-05-24T08:46:24.014Z,13.19
2023-05-24T08:47:24.038Z,13.12
2023-05-24T08:48:21.175Z,13.09
2023-05-24T08:49:20.959Z,13.13
2023-05-24T08:50:20.953Z,13.12
2023-05-24T08:51:20.934Z,13.19
2023-05-24T08:52:20.920Z,13.28
2023-05-24T08:53:20.921Z,13.23
2023-05-24T08:54:20.900Z,13.30
2023-05-24T08:55:20.862Z,13.33
2023-05-24T08:56:20.860Z,13.37
2023-05-24T08:57:20.852Z,13.47
2023-05-24T08:58:20.898Z,13.56
2023-05-24T08:59:20.818Z,13.54
2023-05-24T09:00:20.798Z,13.52
2023-05-24T09:01:20.810Z,13.53
2023-05-24T09:02:20.776Z,13.52
2023-05-24T09:03:20.849Z,13.47
2023-05-24T09:04:20.869Z,13.41
2023-05-24T09:05:20.751Z,13.31
2023-05-24T09:06:23.703Z,13.31
2023-05-24T09:07:23.704Z,13.28
2023-05-24T09:08:20.682Z,13.38
2023-05-24T09:09:20.737Z,13.31
2023-05-24T09:10:20.706Z,13.25
2023-05-24T09:11:20.738Z,13.27
2023-05-24T09:12:35.449Z,13.27
2023-05-24T09:13:21.677Z,13.23
2023-05-24T09:14:20.600Z,13.11
2023-05-24T09:15:20.600Z,13.05
2023-05-24T09:16:20.649Z,13.05
2023-05-24T09:17:20.552Z,13.01
2023-05-24T09:18:20.577Z,13.04
2023-05-24T09:19:20.525Z,13.05
2023-05-24T09:20:20.566Z,13.00
2023-05-24T09:21:20.499Z,13.05
2023-05-24T09:22:20.521Z,13.11
2023-05-24T09:23:20.466Z,13.15
2023-05-24T09:24:20.442Z,13.13
2023-05-24T09:25:20.434Z,13.19
2023-05-24T09:26:23.426Z,13.16
2023-05-24T09:27:23.425Z,13.18
2023-05-24T09:28:20.396Z,13.18
2023-05-24T09:29:20.395Z,13.20
2023-05-24T09:30:20.432Z,13.28
2023-05-24T09:31:20.501Z,13.27
2023-05-24T09:32:20.414Z,13.30
2023-05-24T09:33:20.312Z,13.33
2023-05-24T09:34:20.323Z,13.38
2023-05-24T09:35:20.278Z,13.47
2023-05-24T09:36:20.304Z,13.54
2023-05-24T09:37:20.376Z,13.60
2023-05-24T09:38:20.282Z,13.72
2023-05-24T09:39:20.225Z,13.74
2023-05-24T09:40:20.676Z,13.72
2023-05-24T09:41:20.204Z,13.70
2023-05-24T09:42:20.181Z,13.62
2023-05-24T09:43:20.169Z,13.60
2023-05-24T09:44:20.200Z,13.71
2023-05-24T09:45:20.134Z,13.77
2023-05-24T09:46:23.200Z,13.83
2023-05-24T09:47:23.168Z,13.93
2023-05-24T09:48:20.165Z,14.05
2023-05-24T09:49:20.080Z,14.07
2023-05-24T09:50:20.151Z,14.08
2023-05-24T09:51:20.080Z,14.08
2023-05-24T09:52:20.032Z,14.20
2023-05-24T09:53:20.053Z,14.32
2023-05-24T09:54:20.032Z,14.29
2023-05-24T09:55:19.990Z,14.30
2023-05-24T09:56:20.013Z,14.23
2023-05-24T09:57:20.051Z,14.12
2023-05-24T09:58:19.954Z,14.18
2023-05-24T09:59:19.971Z,14.23
2023-05-24T10:00:20.006Z,14.28
2023-05-24T10:01:20.116Z,14.33
2023-05-24T10:02:19.892Z,14.37
2023-05-24T10:03:19.930Z,14.32
2023-05-24T10:04:19.999Z,14.30
2023-05-24T10:05:19.880Z,14.29
2023-05-24T10:06:22.872Z,14.36
2023-05-24T10:07:22.835Z,14.50
2023-05-24T10:08:19.818Z,14.62
2023-05-24T10:09:19.797Z,14.72
2023-05-24T10:10:19.814Z,14.85
2023-05-24T10:11:19.769Z,14.89
2023-05-24T10:12:19.765Z,14.92
2023-05-24T10:13:19.745Z,14.97
2023-05-24T10:14:19.739Z,14.81
2023-05-24T10:15:19.738Z,14.51
2023-05-24T10:16:19.746Z,14.45
2023-05-24T10:17:19.706Z,14.36
2023-05-24T10:18:19.715Z,14.32
2023-05-24T10:19:19.670Z,14.25
2023-05-24T10:20:19.734Z,14.28
2023-05-24T10:21:19.669Z,14.29
2023-05-24T10:22:19.657Z,14.26
2023-05-24T10:23:19.610Z,14.20
2023-05-24T10:24:19.598Z,14.25
2023-05-24T10:25:19.604Z,14.28
2023-05-24T10:26:22.579Z,14.20
2023-05-24T10:27:22.591Z,14.26
2023-05-24T10:28:19.548Z,14.26
2023-05-24T10:29:19.524Z,14.29
2023-05-24T10:30:19.599Z,14.28
2023-05-24T10:31:19.638Z,14.32
2023-05-24T10:32:19.523Z,14.29
2023-05-24T10:33:19.491Z,14.25
2023-05-24T10:34:19.454Z,14.22
2023-05-24T10:35:19.458Z,14.22
2023-05-24T10:36:19.476Z,14.10
2023-05-24T10:37:19.413Z,14.11
2023-05-24T10:38:19.396Z,14.10
2023-05-24T10:39:19.393Z,13.99
2023-05-24T10:40:19.369Z,13.95
2023-05-24T10:41:19.427Z,13.87
2023-05-24T10:42:19.345Z,13.81
2023-05-24T10:43:19.326Z,13.81
2023-05-24T10:44:19.374Z,13.75
2023-05-24T10:45:19.319Z,13.68
2023-05-24T10:46:22.350Z,13.60
2023-05-24T10:47:22.303Z,13.57
2023-05-24T10:48:19.342Z,13.65
2023-05-24T10:49:19.257Z,13.63
2023-05-24T10:50:19.247Z,13.70
2023-05-24T10:51:19.221Z,13.63
2023-05-24T10:52:19.209Z,13.65
2023-05-24T10:53:19.223Z,13.65
2023-05-24T10:54:19.230Z,13.68
2023-05-24T10:55:19.170Z,13.68
2023-05-24T10:56:19.147Z,13.68
2023-05-24T10:57:19.139Z,13.62
2023-05-24T10:58:19.111Z,13.68
2023-05-24T10:59:19.134Z,13.67
2023-05-24T11:00:33.367Z,13.65
2023-05-24T11:01:20.153Z,13.65
2023-05-24T11:02:19.246Z,13.70
2023-05-24T11:03:19.061Z,13.71
2023-05-24T11:04:19.059Z,13.71
2023-05-24T11:05:19.042Z,13.72
2023-05-24T11:06:22.006Z,13.57
2023-05-24T11:07:22.004Z,13.49
2023-05-24T11:08:18.997Z,13.37
2023-05-24T11:09:19.013Z,13.30
2023-05-24T11:10:18.960Z,13.31
2023-05-24T11:11:26.793Z,13.35
2023-05-24T11:12:19.954Z,13.42
2023-05-24T11:13:18.936Z,13.42
2023-05-24T11:14:18.957Z,13.39
2023-05-24T11:15:18.901Z,13.46
2023-05-24T11:16:18.943Z,13.42
2023-05-24T11:17:18.864Z,13.35
2023-05-24T11:18:18.884Z,13.30
2023-05-24T11:19:18.855Z,13.25
2023-05-24T11:20:18.862Z,13.19
2023-05-24T11:21:18.809Z,13.16
2023-05-24T11:22:18.805Z,13.18
2023-05-24T11:23:18.809Z,13.18
2023-05-24T11:24:18.797Z,13.22
2023-05-24T11:25:18.743Z,13.25
2023-05-24T11:26:21.723Z,13.25
2023-05-24T11:27:21.800Z,13.20
2023-05-24T11:28:18.724Z,13.09
2023-05-24T11:29:18.706Z,13.04
2023-05-24T11:30:18.662Z,13.08
2023-05-24T11:31:18.804Z,13.09
2023-05-24T11:32:18.920Z,13.11
2023-05-24T11:33:18.695Z,13.11
2023-05-24T11:34:18.609Z,13.11
2023-05-24T11:35:18.602Z,13.13
2023-05-24T11:36:18.587Z,13.16
2023-05-24T11:37:19.048Z,13.16
2023-05-24T11:38:18.565Z,13.15
2023-05-24T11:39:18.576Z,13.13
2023-05-24T11:40:18.528Z,13.16
2023-05-24T11:41:18.512Z,13.08
2023-05-24T11:42:18.523Z,13.04
2023-05-24T11:43:18.478Z,13.04
2023-05-24T11:44:18.466Z,13.08
2023-05-24T11:45:18.455Z,13.18
2023-05-24T11:46:21.518Z,13.15
2023-05-24T11:47:21.486Z,13.15
2023-05-24T11:48:18.552Z,13.12
2023-05-24T11:49:18.419Z,13.09
2023-05-24T11:50:18.381Z,13.15
2023-05-24T11:51:18.520Z,13.15
2023-05-24T11:52:18.412Z,13.20
2023-05-24T11:53:18.345Z,13.22
2023-05-24T11:54:18.334Z,13.25
2023-05-24T11:55:18.322Z,13.23
2023-05-24T11:56:18.293Z,13.28
2023-05-24T11:57:18.281Z,13.28
2023-05-24T11:58:18.290Z,13.25
2023-05-24T11:59:18.258Z,13.33
2023-05-24T12:00:18.260Z,13.33
2023-05-24T12:01:18.250Z,13.30
2023-05-24T12:02:18.278Z,13.25
2023-05-24T12:03:18.308Z,13.18
2023-05-24T12:04:18.310Z,13.15
2023-05-24T12:05:18.168Z,13.08
2023-05-24T12:06:21.178Z,13.08
2023-05-24T12:07:21.136Z,13.11
2023-05-24T12:08:18.130Z,13.15
2023-05-24T12:09:18.128Z,13.11
2023-05-24T12:10:18.102Z,13.09
2023-05-24T12:11:18.106Z,13.16
2023-05-24T12:12:18.273Z,13.15
2023-05-24T12:13:18.097Z,13.13
2023-05-24T12:14:18.034Z,13.19
2023-05-24T12:15:18.024Z,13.25
2023-05-24T12:16:18.053Z,13.27
2023-05-24T12:17:17.994Z,13.28
2023-05-24T12:18:18.119Z,13.38
2023-05-24T12:19:31.679Z,13.46
2023-05-24T12:20:18.984Z,13.53
2023-05-24T12:21:17.965Z,13.68
2023-05-24T12:22:17.924Z,13.77
2023-05-24T12:23:17.916Z,13.67
2023-05-24T12:24:17.893Z,13.59
2023-05-24T12:25:17.904Z,13.53
2023-05-24T12:26:20.890Z,13.56
2023-05-24T12:27:20.848Z,13.67
2023-05-24T12:28:17.856Z,13.72
2023-05-24T12:29:17.856Z,13.85
2023-05-24T12:30:17.798Z,13.96
2023-05-24T12:31:17.813Z,13.99
2023-05-24T12:32:17.783Z,14.00
2023-05-24T12:33:17.765Z,14.15
2023-05-24T12:34:17.747Z,14.37
2023-05-24T12:35:17.765Z,14.60
2023-05-24T12:36:17.718Z,14.68
2023-05-24T12:37:17.722Z,14.73
2023-05-24T12:38:17.698Z,14.84
2023-05-24T12:39:17.677Z,14.84
2023-05-24T12:40:17.688Z,14.94
2023-05-24T12:41:17.660Z,14.82
2023-05-24T12:42:17.625Z,14.84
2023-05-24T12:43:17.632Z,14.81
2023-05-24T12:44:17.640Z,14.96
2023-05-24T12:45:17.626Z,15.14
2023-05-24T12:46:20.658Z,15.27
2023-05-24T12:47:20.694Z,15.35
2023-05-24T12:48:17.585Z,15.22
2023-05-24T12:49:17.563Z,15.07
2023-05-24T12:50:17.551Z,15.18
2023-05-24T12:51:17.524Z,15.25
2023-05-24T12:52:17.800Z,15.21
2023-05-24T12:53:17.494Z,15.24
2023-05-24T12:54:17.471Z,15.28
2023-05-24T12:55:17.503Z,15.24
2023-05-24T12:56:17.471Z,15.24
2023-05-24T12:57:17.431Z,15.18
2023-05-24T12:58:17.441Z,15.17